sensor_id;sensor_type;location;lat;lon;timestamp;pressure;altitude;pressure_sealevel;temperature;humidity
50356;BME280;36264;51.296;-0.602;2023-04-09T00:02:09;102230.28;;;14.20;47.12
50356;BME280;36264;51.296;-0.602;2023-04-09T00:04:35;102225.66;;;13.92;47.36
50356;BME280;36264;51.296;-0.602;2023-04-09T00:07:00;102226.66;;;13.87;47.40
50356;BME280;36264;51.296;-0.602;2023-04-09T00:09:25;102224.69;;;13.97;47.04
50356;BME280;36264;51.296;-0.602;2023-04-09T00:11:51;102226.53;;;13.93;47.10
50356;BME280;36264;51.296;-0.602;2023-04-09T00:14:16;102223.22;;;13.85;47.17
50356;BME280;36264;51.296;-0.602;2023-04-09T00:16:41;102221.47;;;13.85;47.06
50356;BME280;36264;51.296;-0.602;2023-04-09T00:19:07;102218.91;;;13.82;46.73
50356;BME280;36264;51.296;-0.602;2023-04-09T00:21:32;102217.19;;;13.81;47.02
50356;BME280;36264;51.296;-0.602;2023-04-09T00:23:57;102218.88;;;13.84;47.25
50356;BME280;36264;51.296;-0.602;2023-04-09T00:26:23;102220.72;;;13.80;46.91
50356;BME280;36264;51.296;-0.602;2023-04-09T00:28:48;102217.19;;;13.81;46.81
50356;BME280;36264;51.296;-0.602;2023-04-09T00:31:13;102221.63;;;13.77;47.00
50356;BME280;36264;51.296;-0.602;2023-04-09T00:33:39;102214.78;;;13.72;47.33
50356;BME280;36264;51.296;-0.602;2023-04-09T00:36:05;102211.31;;;13.71;47.43
50356;BME280;36264;51.296;-0.602;2023-04-09T00:38:31;102213.03;;;13.72;47.45
50356;BME280;36264;51.296;-0.602;2023-04-09T00:40:56;102210.50;;;13.68;47.21
50356;BME280;36264;51.296;-0.602;2023-04-09T00:43:21;102205.28;;;13.68;47.15
50356;BME280;36264;51.296;-0.602;2023-04-09T00:45:47;102205.34;;;13.65;47.19
50356;BME280;36264;51.296;-0.602;2023-04-09T00:48:13;102193.91;;;13.72;47.35
50356;BME280;36264;51.296;-0.602;2023-04-09T00:50:41;102184.28;;;13.74;47.24
50356;BME280;36264;51.296;-0.602;2023-04-09T00:53:07;102179.88;;;13.76;47.25
50356;BME280;36264;51.296;-0.602;2023-04-09T00:55:34;102175.53;;;13.75;47.46
50356;BME280;36264;51.296;-0.602;2023-04-09T00:58:00;102173.13;;;13.67;47.30
50356;BME280;36264;51.296;-0.602;2023-04-09T01:00:26;102157.66;;;13.56;47.50
50356;BME280;36264;51.296;-0.602;2023-04-09T01:02:52;102165.47;;;13.58;47.81
50356;BME280;36264;51.296;-0.602;2023-04-09T01:05:18;102164.56;;;13.59;47.69
50356;BME280;36264;51.296;-0.602;2023-04-09T01:08:07;102154.44;;;13.84;47.85
50356;BME280;36264;51.296;-0.602;2023-04-09T01:10:52;102163.13;;;13.86;47.96
50356;BME280;36264;51.296;-0.602;2023-04-09T01:13:29;102159.72;;;13.81;47.73
50356;BME280;36264;51.296;-0.602;2023-04-09T01:15:57;102160.09;;;13.66;47.66
50356;BME280;36264;51.296;-0.602;2023-04-09T01:18:44;102153.84;;;13.71;47.93
50356;BME280;36264;51.296;-0.602;2023-04-09T01:21:15;102157.53;;;13.63;47.88
50356;BME280;36264;51.296;-0.602;2023-04-09T01:24:08;102149.63;;;13.67;48.07
50356;BME280;36264;51.296;-0.602;2023-04-09T01:27:05;102159.19;;;13.67;48.15
50356;BME280;36264;51.296;-0.602;2023-04-09T01:29:34;102155.13;;;13.53;47.68
50356;BME280;36264;51.296;-0.602;2023-04-09T01:32:02;102155.19;;;13.50;47.94
50356;BME280;36264;51.296;-0.602;2023-04-09T01:34:28;102153.66;;;13.38;48.15
50356;BME280;36264;51.296;-0.602;2023-04-09T01:36:56;102155.97;;;13.54;47.94
50356;BME280;36264;51.296;-0.602;2023-04-09T01:39:23;102150.38;;;13.27;48.15
50356;BME280;36264;51.296;-0.602;2023-04-09T01:41:49;102160.50;;;13.46;48.50
50356;BME280;36264;51.296;-0.602;2023-04-09T01:44:16;102151.06;;;13.38;48.99
50356;BME280;36264;51.296;-0.602;2023-04-09T01:46:41;102155.56;;;13.29;49.17
50356;BME280;36264;51.296;-0.602;2023-04-09T01:49:08;102147.56;;;13.39;49.13
50356;BME280;36264;51.296;-0.602;2023-04-09T01:51:35;102151.19;;;13.34;49.21
50356;BME280;36264;51.296;-0.602;2023-04-09T01:54:02;102151.31;;;13.25;49.27
50356;BME280;36264;51.296;-0.602;2023-04-09T01:56:38;102146.19;;;13.20;49.13
50356;BME280;36264;51.296;-0.602;2023-04-09T01:59:03;102148.75;;;13.23;48.70
50356;BME280;36264;51.296;-0.602;2023-04-09T02:01:36;102148.16;;;13.52;48.71
50356;BME280;36264;51.296;-0.602;2023-04-09T02:04:04;102148.34;;;13.43;48.55
50356;BME280;36264;51.296;-0.602;2023-04-09T02:09:09;102137.91;;;13.43;48.72
50356;BME280;36264;51.296;-0.602;2023-04-09T02:11:37;102135.53;;;13.32;48.79
50356;BME280;36264;51.296;-0.602;2023-04-09T02:14:05;102135.53;;;13.32;48.72
50356;BME280;36264;51.296;-0.602;2023-04-09T02:16:32;102139.22;;;13.20;48.90
50356;BME280;36264;51.296;-0.602;2023-04-09T02:18:58;102136.66;;;13.17;49.08
50356;BME280;36264;51.296;-0.602;2023-04-09T02:21:28;102133.09;;;13.23;48.88
50356;BME280;36264;51.296;-0.602;2023-04-09T02:23:54;102135.72;;;13.21;48.64
50356;BME280;36264;51.296;-0.602;2023-04-09T02:26:20;102137.56;;;13.16;48.55
50356;BME280;36264;51.296;-0.602;2023-04-09T02:28:46;102131.56;;;13.11;48.82
50356;BME280;36264;51.296;-0.602;2023-04-09T02:31:11;102129.88;;;13.10;48.71
50356;BME280;36264;51.296;-0.602;2023-04-09T02:33:36;102129.84;;;13.12;48.67
50356;BME280;36264;51.296;-0.602;2023-04-09T02:36:02;102132.41;;;13.13;48.55
50356;BME280;36264;51.296;-0.602;2023-04-09T02:38:27;102128.81;;;13.19;48.52
50356;BME280;36264;51.296;-0.602;2023-04-09T02:40:52;102134.03;;;13.19;48.01
50356;BME280;36264;51.296;-0.602;2023-04-09T02:43:18;102144.44;;;13.20;48.49
50356;BME280;36264;51.296;-0.602;2023-04-09T02:45:43;102135.75;;;13.20;48.57
50356;BME280;36264;51.296;-0.602;2023-04-09T02:48:08;102127.94;;;13.20;48.32
50356;BME280;36264;51.296;-0.602;2023-04-09T02:50:34;102124.44;;;13.19;48.32
50356;BME280;36264;51.296;-0.602;2023-04-09T02:52:59;102126.34;;;13.11;48.75
50356;BME280;36264;51.296;-0.602;2023-04-09T02:55:24;102117.66;;;13.12;48.77
50356;BME280;36264;51.296;-0.602;2023-04-09T02:57:50;102108.16;;;13.08;48.66
50356;BME280;36264;51.296;-0.602;2023-04-09T03:00:15;102109.31;;;12.93;49.09
50356;BME280;36264;51.296;-0.602;2023-04-09T03:02:40;102123.31;;;12.87;49.31
50356;BME280;36264;51.296;-0.602;2023-04-09T03:05:06;102119.84;;;12.87;49.25
50356;BME280;36264;51.296;-0.602;2023-04-09T03:07:31;102110.41;;;12.80;49.32
50356;BME280;36264;51.296;-0.602;2023-04-09T03:09:57;102113.81;;;12.85;49.33
50356;BME280;36264;51.296;-0.602;2023-04-09T03:12:22;102112.16;;;12.81;49.01
50356;BME280;36264;51.296;-0.602;2023-04-09T03:14:47;102113.13;;;12.77;49.26
50356;BME280;36264;51.296;-0.602;2023-04-09T03:17:13;102114.06;;;12.71;49.36
50356;BME280;36264;51.296;-0.602;2023-04-09T03:19:38;102108.81;;;12.73;49.28
50356;BME280;36264;51.296;-0.602;2023-04-09T03:22:03;102107.97;;;12.72;49.37
50356;BME280;36264;51.296;-0.602;2023-04-09T03:24:30;102108.66;;;12.82;49.14
50356;BME280;36264;51.296;-0.602;2023-04-09T03:26:56;102108.06;;;12.67;49.03
50356;BME280;36264;51.296;-0.602;2023-04-09T03:29:21;102114.19;;;12.65;49.08
50356;BME280;36264;51.296;-0.602;2023-04-09T03:31:46;102108.06;;;12.67;48.92
50356;BME280;36264;51.296;-0.602;2023-04-09T03:34:12;102115.03;;;12.65;48.91
50356;BME280;36264;51.296;-0.602;2023-04-09T03:36:37;102108.09;;;12.66;48.65
50356;BME280;36264;51.296;-0.602;2023-04-09T03:39:03;102108.13;;;12.63;48.81
50356;BME280;36264;51.296;-0.602;2023-04-09T03:41:28;102101.25;;;12.59;48.77
50356;BME280;36264;51.296;-0.602;2023-04-09T03:43:53;102097.88;;;12.54;48.83
50356;BME280;36264;51.296;-0.602;2023-04-09T03:46:19;102097.06;;;12.50;48.83
50356;BME280;36264;51.296;-0.602;2023-04-09T03:48:44;102098.94;;;12.42;48.82
50356;BME280;36264;51.296;-0.602;2023-04-09T03:51:16;102102.97;;;12.60;48.97
50356;BME280;36264;51.296;-0.602;2023-04-09T03:53:41;102098.06;;;12.41;49.03
50356;BME280;36264;51.296;-0.602;2023-04-09T03:56:08;102099.69;;;12.50;48.87
50356;BME280;36264;51.296;-0.602;2023-04-09T03:58:34;102098.88;;;12.45;48.78
50356;BME280;36264;51.296;-0.602;2023-04-09T04:00:59;102092.03;;;12.41;48.57
50356;BME280;36264;51.296;-0.602;2023-04-09T04:03:25;102092.88;;;12.41;48.55
50356;BME280;36264;51.296;-0.602;2023-04-09T04:05:50;102100.78;;;12.35;48.46
50356;BME280;36264;51.296;-0.602;2023-04-09T04:08:15;102088.66;;;12.34;48.48
50356;BME280;36264;51.296;-0.602;2023-04-09T04:10:41;102092.06;;;12.38;48.18
50356;BME280;36264;51.296;-0.602;2023-04-09T04:13:06;102079.13;;;12.33;48.17
50356;BME280;36264;51.296;-0.602;2023-04-09T04:15:33;102083.50;;;12.31;48.25
50356;BME280;36264;51.296;-0.602;2023-04-09T04:17:58;102086.22;;;12.25;48.19
50356;BME280;36264;51.296;-0.602;2023-04-09T04:20:23;102085.34;;;12.23;48.17
50356;BME280;36264;51.296;-0.602;2023-04-09T04:22:49;102081.91;;;12.21;47.92
50356;BME280;36264;51.296;-0.602;2023-04-09T04:25:14;102082.81;;;12.20;48.03
50356;BME280;36264;51.296;-0.602;2023-04-09T04:27:41;102087.09;;;12.24;48.08
50356;BME280;36264;51.296;-0.602;2023-04-09T04:30:07;102088.88;;;12.22;48.00
50356;BME280;36264;51.296;-0.602;2023-04-09T04:32:32;102082.03;;;12.13;48.04
50356;BME280;36264;51.296;-0.602;2023-04-09T04:34:57;102076.09;;;12.05;47.90
50356;BME280;36264;51.296;-0.602;2023-04-09T04:37:23;102083.94;;;12.03;47.93
50356;BME280;36264;51.296;-0.602;2023-04-09T04:39:48;102079.69;;;11.99;47.98
50356;BME280;36264;51.296;-0.602;2023-04-09T04:42:14;102077.97;;;11.96;48.03
50356;BME280;36264;51.296;-0.602;2023-04-09T04:44:39;102073.69;;;11.92;48.21
50356;BME280;36264;51.296;-0.602;2023-04-09T04:47:04;102070.22;;;11.90;47.95
50356;BME280;36264;51.296;-0.602;2023-04-09T04:49:30;102064.97;;;11.95;47.75
50356;BME280;36264;51.296;-0.602;2023-04-09T04:51:55;102065.81;;;11.95;47.78
50356;BME280;36264;51.296;-0.602;2023-04-09T04:54:21;102067.59;;;11.95;47.64
50356;BME280;36264;51.296;-0.602;2023-04-09T04:56:46;102071.94;;;11.91;47.50
50356;BME280;36264;51.296;-0.602;2023-04-09T04:59:11;102064.28;;;11.82;47.77
50356;BME280;36264;51.296;-0.602;2023-04-09T05:01:37;102063.38;;;11.85;47.98
50356;BME280;36264;51.296;-0.602;2023-04-09T05:04:02;102065.16;;;11.81;47.91
50356;BME280;36264;51.296;-0.602;2023-04-09T05:06:28;102070.41;;;11.78;48.13
50356;BME280;36264;51.296;-0.602;2023-04-09T05:08:54;102062.53;;;11.81;47.88
50356;BME280;36264;51.296;-0.602;2023-04-09T05:11:23;102063.47;;;11.78;47.89
50356;BME280;36264;51.296;-0.602;2023-04-09T05:13:48;102061.00;;;11.69;47.84
50356;BME280;36264;51.296;-0.602;2023-04-09T05:16:15;102060.91;;;11.75;47.90
50356;BME280;36264;51.296;-0.602;2023-04-09T05:18:41;102066.06;;;11.78;47.40
50356;BME280;36264;51.296;-0.602;2023-04-09T05:21:07;102059.84;;;11.87;47.57
50356;BME280;36264;51.296;-0.602;2023-04-09T05:23:32;102060.72;;;11.86;47.60
50356;BME280;36264;51.296;-0.602;2023-04-09T05:25:57;102058.13;;;11.86;47.68
50356;BME280;36264;51.296;-0.602;2023-04-09T05:28:23;102051.19;;;11.87;47.45
50356;BME280;36264;51.296;-0.602;2023-04-09T05:30:48;102049.47;;;11.86;47.58
50356;BME280;36264;51.296;-0.602;2023-04-09T05:33:13;102053.78;;;11.87;47.55
50356;BME280;36264;51.296;-0.602;2023-04-09T05:35:39;102053.75;;;11.90;47.38
50356;BME280;36264;51.296;-0.602;2023-04-09T05:38:04;102056.31;;;11.91;47.50
50356;BME280;36264;51.296;-0.602;2023-04-09T05:40:30;102063.31;;;11.88;47.55
50356;BME280;36264;51.296;-0.602;2023-04-09T05:42:55;102060.69;;;11.88;47.72
50356;BME280;36264;51.296;-0.602;2023-04-09T05:45:20;102069.34;;;11.93;47.83
50356;BME280;36264;51.296;-0.602;2023-04-09T05:47:46;102057.97;;;11.99;47.69
50356;BME280;36264;51.296;-0.602;2023-04-09T05:50:11;102059.94;;;11.81;48.26
50356;BME280;36264;51.296;-0.602;2023-04-09T05:52:37;102064.31;;;11.81;48.71
50356;BME280;36264;51.296;-0.602;2023-04-09T05:55:02;102070.31;;;11.84;48.88
50356;BME280;36264;51.296;-0.602;2023-04-09T05:57:28;102070.25;;;11.87;48.80
50356;BME280;36264;51.296;-0.602;2023-04-09T05:59:55;102068.47;;;11.91;48.85
50356;BME280;36264;51.296;-0.602;2023-04-09T06:02:20;102064.13;;;11.94;48.95
50356;BME280;36264;51.296;-0.602;2023-04-09T06:04:45;102065.72;;;12.02;48.79
50356;BME280;36264;51.296;-0.602;2023-04-09T06:07:11;102069.13;;;12.07;48.79
50356;BME280;36264;51.296;-0.602;2023-04-09T06:09:36;102069.06;;;12.10;49.10
50356;BME280;36264;51.296;-0.602;2023-04-09T06:12:02;102062.91;;;12.16;49.43
50356;BME280;36264;51.296;-0.602;2023-04-09T06:14:28;102058.44;;;12.22;49.34
50356;BME280;36264;51.296;-0.602;2023-04-09T06:16:53;102061.91;;;12.23;49.74
50356;BME280;36264;51.296;-0.602;2023-04-09T06:19:19;102047.19;;;12.22;49.66
50356;BME280;36264;51.296;-0.602;2023-04-09T06:21:44;102046.16;;;12.29;49.91
50356;BME280;36264;51.296;-0.602;2023-04-09T06:24:10;102045.25;;;12.33;49.93
50356;BME280;36264;51.296;-0.602;2023-04-09T06:26:35;102052.91;;;12.42;50.19
50356;BME280;36264;51.296;-0.602;2023-04-09T06:29:01;102051.03;;;12.49;50.35
50356;BME280;36264;51.296;-0.602;2023-04-09T06:31:26;102049.16;;;12.57;50.06
50356;BME280;36264;51.296;-0.602;2023-04-09T06:33:52;102046.34;;;12.68;50.32
50356;BME280;36264;51.296;-0.602;2023-04-09T06:36:17;102036.63;;;12.76;50.26
50356;BME280;36264;51.296;-0.602;2023-04-09T06:38:42;102036.41;;;12.87;50.74
50356;BME280;36264;51.296;-0.602;2023-04-09T06:41:08;102030.19;;;12.96;50.81
50356;BME280;36264;51.296;-0.602;2023-04-09T06:43:34;102027.38;;;13.03;50.87
50356;BME280;36264;51.296;-0.602;2023-04-09T06:46:00;102025.50;;;13.12;50.97
50356;BME280;36264;51.296;-0.602;2023-04-09T06:48:26;102028.78;;;13.20;51.09
50356;BME280;36264;51.296;-0.602;2023-04-09T06:50:51;102034.69;;;13.28;51.24
50356;BME280;36264;51.296;-0.602;2023-04-09T06:53:16;102019.78;;;13.35;51.15
50356;BME280;36264;51.296;-0.602;2023-04-09T06:55:42;102017.94;;;13.40;51.20
50356;BME280;36264;51.296;-0.602;2023-04-09T06:58:07;102016.09;;;13.45;51.38
50356;BME280;36264;51.296;-0.602;2023-04-09T07:00:33;102024.66;;;13.50;51.46
50356;BME280;36264;51.296;-0.602;2023-04-09T07:02:58;102027.16;;;13.56;51.14
50356;BME280;36264;51.296;-0.602;2023-04-09T07:05:23;102035.78;;;13.58;51.32
50356;BME280;36264;51.296;-0.602;2023-04-09T07:07:49;102034.13;;;13.54;51.69
50356;BME280;36264;51.296;-0.602;2023-04-09T07:10:14;102035.94;;;13.52;51.74
50356;BME280;36264;51.296;-0.602;2023-04-09T07:12:40;102033.31;;;13.52;51.90
50356;BME280;36264;51.296;-0.602;2023-04-09T07:15:05;102040.22;;;13.55;52.27
50356;BME280;36264;51.296;-0.602;2023-04-09T07:17:32;102039.28;;;13.57;52.43
50356;BME280;36264;51.296;-0.602;2023-04-09T07:19:58;102029.75;;;13.56;52.64
50356;BME280;36264;51.296;-0.602;2023-04-09T07:22:24;102035.56;;;13.69;52.63
50356;BME280;36264;51.296;-0.602;2023-04-09T07:24:50;102042.69;;;13.63;52.60
50356;BME280;36264;51.296;-0.602;2023-04-09T07:27:23;102042.31;;;13.76;52.81
50356;BME280;36264;51.296;-0.602;2023-04-09T07:29:49;102035.66;;;13.65;52.89
50356;BME280;36264;51.296;-0.602;2023-04-09T07:32:15;102036.41;;;13.70;53.22
50356;BME280;36264;51.296;-0.602;2023-04-09T07:34:42;102037.72;;;13.88;52.74
50356;BME280;36264;51.296;-0.602;2023-04-09T07:37:07;102037.84;;;13.83;53.06
50356;BME280;36264;51.296;-0.602;2023-04-09T07:39:33;102050.75;;;13.89;53.28
50356;BME280;36264;51.296;-0.602;2023-04-09T07:42:01;102046.94;;;14.03;53.55
50356;BME280;36264;51.296;-0.602;2023-04-09T07:44:27;102044.69;;;13.87;54.19
50356;BME280;36264;51.296;-0.602;2023-04-09T07:46:53;102047.13;;;13.95;54.24
50356;BME280;36264;51.296;-0.602;2023-04-09T07:49:18;102051.13;;;14.10;54.21
50356;BME280;36264;51.296;-0.602;2023-04-09T07:51:43;102042.19;;;14.19;54.10
50356;BME280;36264;51.296;-0.602;2023-04-09T07:54:09;102046.31;;;14.27;54.44
50356;BME280;36264;51.296;-0.602;2023-04-09T07:56:34;102050.41;;;14.38;54.69
50356;BME280;36264;51.296;-0.602;2023-04-09T07:59:00;102040.47;;;14.50;54.74
50356;BME280;36264;51.296;-0.602;2023-04-09T08:01:26;102041.06;;;14.62;54.63
50356;BME280;36264;51.296;-0.602;2023-04-09T08:03:51;102038.22;;;14.71;54.53
50356;BME280;36264;51.296;-0.602;2023-04-09T08:06:16;102042.44;;;14.77;55.34
50356;BME280;36264;51.296;-0.602;2023-04-09T08:08:43;102035.81;;;14.95;54.95
50356;BME280;36264;51.296;-0.602;2023-04-09T08:11:08;102030.66;;;14.92;54.97
50356;BME280;36264;51.296;-0.602;2023-04-09T08:13:34;102020.03;;;14.98;55.38
50356;BME280;36264;51.296;-0.602;2023-04-09T08:16:00;102024.22;;;15.03;55.16
50356;BME280;36264;51.296;-0.602;2023-04-09T08:18:26;102022.50;;;15.02;55.15
50356;BME280;36264;51.296;-0.602;2023-04-09T08:20:52;102019.88;;;15.02;56.18
50356;BME280;36264;51.296;-0.602;2023-04-09T08:23:17;102016.59;;;14.96;56.69
50356;BME280;36264;51.296;-0.602;2023-04-09T08:25:43;102019.75;;;15.07;55.62
50356;BME280;36264;51.296;-0.602;2023-04-09T08:28:08;102021.34;;;15.11;55.99
50356;BME280;36264;51.296;-0.602;2023-04-09T08:30:34;102020.56;;;15.09;56.33
50356;BME280;36264;51.296;-0.602;2023-04-09T08:33:00;102013.09;;;15.25;56.26
50356;BME280;36264;51.296;-0.602;2023-04-09T08:35:25;102013.06;;;15.27;56.02
50356;BME280;36264;51.296;-0.602;2023-04-09T08:37:53;102010.22;;;15.34;55.71
50356;BME280;36264;51.296;-0.602;2023-04-09T08:40:19;102017.97;;;15.37;55.54
50356;BME280;36264;51.296;-0.602;2023-04-09T08:42:45;102016.00;;;15.44;55.56
50356;BME280;36264;51.296;-0.602;2023-04-09T08:45:12;102016.97;;;15.42;55.83
50356;BME280;36264;51.296;-0.602;2023-04-09T08:47:39;102017.41;;;15.56;55.75
50356;BME280;36264;51.296;-0.602;2023-04-09T08:50:06;102011.53;;;15.48;55.88
50356;BME280;36264;51.296;-0.602;2023-04-09T08:52:33;102012.03;;;15.61;55.85
50356;BME280;36264;51.296;-0.602;2023-04-09T08:54:59;102018.16;;;15.60;55.94
50356;BME280;36264;51.296;-0.602;2023-04-09T08:57:24;102018.00;;;15.64;56.03
50356;BME280;36264;51.296;-0.602;2023-04-09T08:59:49;102015.28;;;15.67;55.74
50356;BME280;36264;51.296;-0.602;2023-04-09T09:02:15;102010.00;;;15.69;56.08
50356;BME280;36264;51.296;-0.602;2023-04-09T09:07:10;102020.28;;;15.77;55.60
50356;BME280;36264;51.296;-0.602;2023-04-09T09:09:52;102008.97;;;16.01;57.35
50356;BME280;36264;51.296;-0.602;2023-04-09T09:12:31;102012.22;;;16.08;55.71
50356;BME280;36264;51.296;-0.602;2023-04-09T09:14:57;102013.50;;;15.96;55.58
50356;BME280;36264;51.296;-0.602;2023-04-09T09:17:23;102009.50;;;16.11;55.43
50356;BME280;36264;51.296;-0.602;2023-04-09T09:19:49;102005.50;;;16.01;55.79
50356;BME280;36264;51.296;-0.602;2023-04-09T09:22:14;101995.06;;;15.99;55.89
50356;BME280;36264;51.296;-0.602;2023-04-09T09:24:51;102006.56;;;16.20;56.15
50356;BME280;36264;51.296;-0.602;2023-04-09T09:27:33;102007.16;;;16.28;56.35
50356;BME280;36264;51.296;-0.602;2023-04-09T09:30:03;101999.91;;;16.11;56.26
50356;BME280;36264;51.296;-0.602;2023-04-09T09:32:33;102000.44;;;16.21;56.07
50356;BME280;36264;51.296;-0.602;2023-04-09T09:35:03;101996.28;;;16.39;55.51
50356;BME280;36264;51.296;-0.602;2023-04-09T09:37:29;101998.22;;;16.34;55.68
50356;BME280;36264;51.296;-0.602;2023-04-09T09:39:56;101989.28;;;16.40;55.72
50356;BME280;36264;51.296;-0.602;2023-04-09T09:42:21;101985.81;;;16.39;55.55
50356;BME280;36264;51.296;-0.602;2023-04-09T09:44:46;101985.47;;;16.48;55.66
50356;BME280;36264;51.296;-0.602;2023-04-09T09:47:13;101985.72;;;16.66;55.39
50356;BME280;36264;51.296;-0.602;2023-04-09T09:49:39;101982.59;;;16.56;55.58
50356;BME280;36264;51.296;-0.602;2023-04-09T09:52:08;101979.91;;;16.81;56.24
50356;BME280;36264;51.296;-0.602;2023-04-09T09:54:47;101969.84;;;16.94;55.63
50356;BME280;36264;51.296;-0.602;2023-04-09T09:57:16;101962.00;;;16.93;56.04
50356;BME280;36264;51.296;-0.602;2023-04-09T09:59:49;101951.16;;;17.02;55.33
50356;BME280;36264;51.296;-0.602;2023-04-09T10:02:22;101955.19;;;17.11;55.16
50356;BME280;36264;51.296;-0.602;2023-04-09T10:04:49;101953.69;;;17.05;55.76
50356;BME280;36264;51.296;-0.602;2023-04-09T10:07:18;101953.34;;;17.13;55.14
50356;BME280;36264;51.296;-0.602;2023-04-09T10:09:48;101945.06;;;17.24;55.07
50356;BME280;36264;51.296;-0.602;2023-04-09T10:12:15;101956.44;;;17.24;55.39
50356;BME280;36264;51.296;-0.602;2023-04-09T10:14:41;101953.34;;;17.35;55.23
50356;BME280;36264;51.296;-0.602;2023-04-09T10:17:06;101947.25;;;17.34;55.15
50356;BME280;36264;51.296;-0.602;2023-04-09T10:19:46;101937.50;;;17.59;55.20
50356;BME280;36264;51.296;-0.602;2023-04-09T10:22:16;101928.41;;;17.67;55.05
50356;BME280;36264;51.296;-0.602;2023-04-09T10:24:45;101935.75;;;17.59;55.17
50356;BME280;36264;51.296;-0.602;2023-04-09T10:27:13;101934.31;;;17.72;55.13
50356;BME280;36264;51.296;-0.602;2023-04-09T10:29:44;101931.91;;;17.88;54.96
50356;BME280;36264;51.296;-0.602;2023-04-09T10:32:10;101929.06;;;17.72;55.26
50356;BME280;36264;51.296;-0.602;2023-04-09T10:34:42;101929.03;;;17.95;55.14
50356;BME280;36264;51.296;-0.602;2023-04-09T10:37:19;101932.38;;;17.98;55.12
50356;BME280;36264;51.296;-0.602;2023-04-09T10:39:46;101935.94;;;17.97;54.87
50356;BME280;36264;51.296;-0.602;2023-04-09T10:42:14;101928.44;;;18.08;54.62
50356;BME280;36264;51.296;-0.602;2023-04-09T10:44:42;101929.53;;;18.03;54.40
50356;BME280;36264;51.296;-0.602;2023-04-09T10:47:08;101931.31;;;18.23;54.48
50356;BME280;36264;51.296;-0.602;2023-04-09T10:49:36;101918.44;;;18.36;54.09
50356;BME280;36264;51.296;-0.602;2023-04-09T10:52:06;101922.44;;;18.44;54.42
50356;BME280;36264;51.296;-0.602;2023-04-09T10:57:23;101920.59;;;18.65;53.88
50356;BME280;36264;51.296;-0.602;2023-04-09T10:59:52;101920.59;;;18.65;54.11
50356;BME280;36264;51.296;-0.602;2023-04-09T11:05:06;101910.22;;;18.81;53.33
50356;BME280;36264;51.296;-0.602;2023-04-09T11:07:38;101907.50;;;18.83;53.65
50356;BME280;36264;51.296;-0.602;2023-04-09T11:10:05;101899.63;;;18.83;53.72
50356;BME280;36264;51.296;-0.602;2023-04-09T11:12:30;101890.06;;;18.80;53.50
50356;BME280;36264;51.296;-0.602;2023-04-09T11:14:56;101884.25;;;18.93;53.47
50356;BME280;36264;51.296;-0.602;2023-04-09T11:17:21;101882.31;;;18.96;53.71
50356;BME280;36264;51.296;-0.602;2023-04-09T11:19:46;101871.97;;;19.11;53.71
50356;BME280;36264;51.296;-0.602;2023-04-09T11:22:12;101865.41;;;19.19;53.49
50356;BME280;36264;51.296;-0.602;2023-04-09T11:24:42;101866.56;;;19.49;52.97
50356;BME280;36264;51.296;-0.602;2023-04-09T11:27:07;101869.34;;;19.28;52.99
50356;BME280;36264;51.296;-0.602;2023-04-09T11:29:34;101864.16;;;19.44;52.72
50356;BME280;36264;51.296;-0.602;2023-04-09T11:31:59;101861.00;;;19.37;52.89
50356;BME280;36264;51.296;-0.602;2023-04-09T11:34:28;101853.47;;;19.65;52.39
50356;BME280;36264;51.296;-0.602;2023-04-09T11:36:53;101855.94;;;19.50;52.69
50356;BME280;36264;51.296;-0.602;2023-04-09T11:39:19;101859.13;;;19.57;52.53
50356;BME280;36264;51.296;-0.602;2023-04-09T11:41:44;101855.78;;;19.53;52.42
50356;BME280;36264;51.296;-0.602;2023-04-09T11:44:11;101858.44;;;19.53;52.57
50356;BME280;36264;51.296;-0.602;2023-04-09T11:46:37;101851.41;;;19.54;51.84
50356;BME280;36264;51.296;-0.602;2023-04-09T11:49:03;101848.50;;;19.41;52.31
50356;BME280;36264;51.296;-0.602;2023-04-09T11:51:28;101836.44;;;19.37;52.38
50356;BME280;36264;51.296;-0.602;2023-04-09T11:54:07;101832.38;;;19.65;52.27
50356;BME280;36264;51.296;-0.602;2023-04-09T11:56:34;101825.03;;;19.71;52.40
50356;BME280;36264;51.296;-0.602;2023-04-09T11:59:00;101828.38;;;19.58;52.14
50356;BME280;36264;51.296;-0.602;2023-04-09T12:01:30;101821.00;;;19.82;51.56
50356;BME280;36264;51.296;-0.602;2023-04-09T12:03:56;101819.34;;;19.79;51.89
50356;BME280;36264;51.296;-0.602;2023-04-09T12:06:22;101816.00;;;19.93;51.60
50356;BME280;36264;51.296;-0.602;2023-04-09T12:08:55;101813.56;;;20.22;51.64
50356;BME280;36264;51.296;-0.602;2023-04-09T12:11:29;101808.97;;;20.25;51.56
50356;BME280;36264;51.296;-0.602;2023-04-09T12:14:02;101808.13;;;20.41;51.32
50356;BME280;36264;51.296;-0.602;2023-04-09T12:16:32;101807.19;;;20.58;51.12
50356;BME280;36264;51.296;-0.602;2023-04-09T12:19:08;101806.53;;;20.70;50.58
50356;BME280;36264;51.296;-0.602;2023-04-09T12:21:55;101811.38;;;20.78;49.59
50356;BME280;36264;51.296;-0.602;2023-04-09T12:24:24;101807.34;;;20.71;50.43
50356;BME280;36264;51.296;-0.602;2023-04-09T12:26:50;101808.63;;;20.63;49.60
50356;BME280;36264;51.296;-0.602;2023-04-09T12:29:17;101805.66;;;20.86;50.36
50356;BME280;36264;51.296;-0.602;2023-04-09T12:31:43;101797.94;;;20.97;49.42
50356;BME280;36264;51.296;-0.602;2023-04-09T12:34:09;101798.56;;;20.86;49.49
50356;BME280;36264;51.296;-0.602;2023-04-09T12:36:36;101796.94;;;20.84;49.39
50356;BME280;36264;51.296;-0.602;2023-04-09T12:39:02;101795.00;;;20.87;49.45
50356;BME280;36264;51.296;-0.602;2023-04-09T12:41:27;101795.88;;;21.02;49.48
50356;BME280;36264;51.296;-0.602;2023-04-09T12:43:52;101791.16;;;21.07;49.07
50356;BME280;36264;51.296;-0.602;2023-04-09T12:46:18;101790.94;;;21.26;48.92
50356;BME280;36264;51.296;-0.602;2023-04-09T12:48:45;101782.19;;;21.40;49.03
50356;BME280;36264;51.296;-0.602;2023-04-09T12:51:11;101792.06;;;21.52;48.59